Time,TemperatureF,DewpointF,PressureIn,WindDirection,WindDirectionDegrees,WindSpeedMPH,WindSpeedGustMPH,Humidity,HourlyPrecipIn,Conditions,Clouds,dailyrainin,SoftwareType,DateUTC
2013-07-17 00:00:00,81.6,65.4,30.20,SSW,198,0.0,4.0,58,0.00,,---,0.00,VWS V14.01,2013-07-17 05:00:00,
2013-07-17 00:04:00,79.4,65.7,30.20,South,190,0.0,1.0,63,0.00,,---,0.00,VWS V14.01,2013-07-17 05:04:00,
2013-07-17 00:09:00,79.2,65.5,30.20,South,190,0.0,2.0,63,0.00,,---,0.00,VWS V14.01,2013-07-17 05:09:00,
2013-07-17 00:14:00,79.2,66.0,30.20,South,190,0.0,2.0,64,0.00,,---,0.00,VWS V14.01,2013-07-17 05:14:00,
2013-07-17 00:19:00,79.2,66.0,30.20,South,190,0.0,2.0,64,0.00,,---,0.00,VWS V14.01,2013-07-17 05:19:00,
2013-07-17 00:24:00,79.0,65.8,30.20,South,190,0.0,2.0,64,0.00,,---,0.00,VWS V14.01,2013-07-17 05:24:00,
2013-07-17 00:29:00,78.8,65.6,30.20,South,190,0.0,2.0,64,0.00,,---,0.00,VWS V14.01,2013-07-17 05:29:00,
2013-07-17 00:30:00,80.5,65.8,30.20,South,190,0.0,2.0,61,0.00,,---,0.00,VWS V14.01,2013-07-17 05:30:00,
2013-07-17 00:34:00,78.6,65.9,30.20,South,190,0.0,0.0,65,0.00,,---,0.00,VWS V14.01,2013-07-17 05:34:00,
2013-07-17 00:39:00,78.6,65.9,30.20,South,190,0.0,0.0,65,0.00,,---,0.00,VWS V14.01,2013-07-17 05:39:00,
2013-07-17 00:44:00,78.3,65.6,30.20,South,190,0.0,0.0,65,0.00,,---,0.00,VWS V14.01,2013-07-17 05:44:00,
2013-07-17 00:49:00,78.1,65.4,30.21,South,190,0.0,0.0,65,0.00,,---,0.00,VWS V14.01,2013-07-17 05:49:00,
2013-07-17 00:54:00,77.9,65.6,30.21,South,190,0.0,0.0,66,0.00,,---,0.00,VWS V14.01,2013-07-17 05:54:00,
2013-07-17 00:59:00,77.7,65.4,30.21,South,189,1.0,2.0,66,0.00,,---,0.00,VWS V14.01,2013-07-17 05:59:00,
2013-07-17 01:00:00,79.4,65.7,30.20,South,190,0.0,1.0,63,0.00,,---,0.00,VWS V14.01,2013-07-17 06:00:00,
2013-07-17 01:04:00,77.7,65.9,30.21,South,189,0.0,1.0,67,0.00,,---,0.00,VWS V14.01,2013-07-17 06:04:00,
2013-07-17 01:09:00,77.6,65.8,30.21,South,189,0.0,1.0,67,0.00,,---,0.00,VWS V14.01,2013-07-17 06:09:00,
2013-07-17 01:14:00,77.6,65.8,30.21,South,189,0.0,1.0,67,0.00,,---,0.00,VWS V14.01,2013-07-17 06:14:00,
2013-07-17 01:19:00,77.6,65.8,30.21,South,189,0.0,1.0,67,0.00,,---,0.00,VWS V14.01,2013-07-17 06:19:00,
2013-07-17 01:24:00,77.4,66.0,30.21,South,189,0.0,1.0,68,0.00,,---,0.00,VWS V14.01,2013-07-17 06:24:00,
2013-07-17 01:29:00,77.2,65.8,30.21,South,189,0.0,1.0,68,0.00,,---,0.00,VWS V14.01,2013-07-17 06:29:00,
2013-07-17 01:30:00,78.8,65.6,30.20,South,190,0.0,2.0,64,0.00,,---,0.00,VWS V14.01,2013-07-17 06:30:00,
2013-07-17 01:34:00,76.8,65.4,30.21,South,189,0.0,0.0,68,0.00,,---,0.00,VWS V14.01,2013-07-17 06:34:00,
2013-07-17 01:39:00,76.7,65.3,30.21,South,189,0.0,0.0,68,0.00,,---,0.00,VWS V14.01,2013-07-17 06:39:00,
2013-07-17 01:44:00,76.5,65.2,30.21,South,189,0.0,0.0,68,0.00,,---,0.00,VWS V14.01,2013-07-17 06:44:00,
2013-07-17 01:49:00,76.5,65.6,30.21,South,189,0.0,0.0,69,0.00,,---,0.00,VWS V14.01,2013-07-17 06:49:00,
2013-07-17 01:54:00,76.7,65.8,30.21,South,189,0.0,1.0,69,0.00,,---,0.00,VWS V14.01,2013-07-17 06:54:00,
2013-07-17 01:59:00,76.8,66.3,30.21,South,189,0.0,1.0,70,0.00,,---,0.00,VWS V14.01,2013-07-17 06:59:00,
2013-07-17 02:00:00,77.7,65.4,30.21,South,189,1.0,2.0,66,0.00,,---,0.00,VWS V14.01,2013-07-17 07:00:00,
2013-07-17 02:04:00,77.0,66.5,30.21,South,189,0.0,1.0,70,0.00,,---,0.00,VWS V14.01,2013-07-17 07:04:00,
2013-07-17 02:09:00,77.0,66.5,30.21,South,189,0.0,1.0,70,0.00,,---,0.00,VWS V14.01,2013-07-17 07:09:00,
2013-07-17 02:14:00,77.0,66.5,30.21,South,189,0.0,1.0,70,0.00,,---,0.00,VWS V14.01,2013-07-17 07:14:00,
2013-07-17 02:19:00,77.0,66.5,30.21,South,189,0.0,1.0,70,0.00,,---,0.00,VWS V14.01,2013-07-17 07:19:00,
2013-07-17 02:24:00,77.0,66.5,30.21,South,189,0.0,1.0,70,0.00,,---,0.00,VWS V14.01,2013-07-17 07:24:00,
2013-07-17 02:29:00,77.0,66.9,30.21,South,189,0.0,1.0,71,0.00,,---,0.00,VWS V14.01,2013-07-17 07:29:00,
2013-07-17 02:30:00,77.0,65.6,30.21,South,189,0.0,1.0,68,0.00,,---,0.00,VWS V14.01,2013-07-17 07:30:00,
2013-07-17 02:34:00,77.0,66.9,30.21,South,189,0.0,1.0,71,0.00,,---,0.00,VWS V14.01,2013-07-17 07:34:00,
2013-07-17 02:39:00,77.0,66.9,30.21,South,189,0.0,2.0,71,0.00,,---,0.00,VWS V14.01,2013-07-17 07:39:00,
2013-07-17 02:44:00,77.0,66.9,30.21,SSW,198,0.0,2.0,71,0.00,,---,0.00,VWS V14.01,2013-07-17 07:44:00,
2013-07-17 02:49:00,77.0,66.9,30.21,SSW,198,0.0,2.0,71,0.00,,---,0.00,VWS V14.01,2013-07-17 07:49:00,
2013-07-17 02:54:00,77.0,66.9,30.21,SSW,198,0.0,2.0,71,0.00,,---,0.00,VWS V14.01,2013-07-17 07:54:00,
2013-07-17 02:59:00,76.8,66.7,30.21,SSW,198,0.0,2.0,71,0.00,,---,0.00,VWS V14.01,2013-07-17 07:59:00,
2013-07-17 03:00:00,76.8,66.3,30.21,South,189,0.0,1.0,70,0.00,,---,0.00,VWS V14.01,2013-07-17 08:00:00,
2013-07-17 03:04:00,76.7,67.0,30.21,SSW,198,0.0,1.0,72,0.00,,---,0.00,VWS V14.01,2013-07-17 08:04:00,
2013-07-17 03:09:00,76.5,66.8,30.21,SSW,198,0.0,1.0,72,0.00,,---,0.00,VWS V14.01,2013-07-17 08:09:00,
2013-07-17 03:14:00,76.5,66.8,30.21,SSW,198,0.0,1.0,72,0.00,,---,0.00,VWS V14.01,2013-07-17 08:14:00,
2013-07-17 03:19:00,76.5,66.8,30.21,SSW,198,0.0,1.0,72,0.00,,---,0.00,VWS V14.01,2013-07-17 08:19:00,
2013-07-17 03:24:00,76.3,67.0,30.21,SSW,198,0.0,1.0,73,0.00,,---,0.00,VWS V14.01,2013-07-17 08:24:00,
2013-07-17 03:29:00,76.3,67.0,30.21,SSW,198,0.0,1.0,73,0.00,,---,0.00,VWS V14.01,2013-07-17 08:29:00,
2013-07-17 03:30:00,77.0,66.9,30.21,South,189,0.0,1.0,71,0.00,,---,0.00,VWS V14.01,2013-07-17 08:30:00,
2013-07-17 03:34:00,76.3,67.0,30.21,SSW,198,0.0,0.0,73,0.00,,---,0.00,VWS V14.01,2013-07-17 08:34:00,
2013-07-17 03:39:00,76.3,67.0,30.21,SSW,198,0.0,0.0,73,0.00,,---,0.00,VWS V14.01,2013-07-17 08:39:00,
2013-07-17 03:44:00,76.1,66.8,30.21,SSW,198,0.0,0.0,73,0.00,,---,0.00,VWS V14.01,2013-07-17 08:44:00,
2013-07-17 03:49:00,76.1,66.8,30.21,SSW,198,0.0,1.0,73,0.00,,---,0.00,VWS V14.01,2013-07-17 08:49:00,
2013-07-17 03:54:00,76.1,66.8,30.21,SSW,198,0.0,1.0,73,0.00,,---,0.00,VWS V14.01,2013-07-17 08:54:00,
2013-07-17 03:59:00,76.0,67.1,30.21,SSW,198,0.0,1.0,74,0.00,,---,0.00,VWS V14.01,2013-07-17 08:59:00,
2013-07-17 04:00:00,76.8,67.1,30.21,SSW,198,0.0,2.0,72,0.00,,---,0.00,VWS V14.01,2013-07-17 09:00:00,
2013-07-17 04:04:00,76.0,67.1,30.21,SSW,198,0.0,0.0,74,0.00,,---,0.00,VWS V14.01,2013-07-17 09:04:00,
2013-07-17 04:09:00,75.8,66.9,30.21,SSW,198,0.0,0.0,74,0.00,,---,0.00,VWS V14.01,2013-07-17 09:09:00,
2013-07-17 04:14:00,75.6,66.7,30.21,SSW,198,0.0,0.0,74,0.00,,---,0.00,VWS V14.01,2013-07-17 09:14:00,
2013-07-17 04:19:00,75.4,66.9,30.21,SSW,198,0.0,0.0,75,0.00,,---,0.00,VWS V14.01,2013-07-17 09:19:00,
2013-07-17 04:24:00,75.4,66.9,30.21,SSW,198,0.0,0.0,75,0.00,,---,0.00,VWS V14.01,2013-07-17 09:24:00,
2013-07-17 04:29:00,75.3,66.8,30.21,SSW,198,0.0,0.0,75,0.00,,---,0.00,VWS V14.01,2013-07-17 09:29:00,
2013-07-17 04:30:00,76.3,67.0,30.21,SSW,198,0.0,1.0,73,0.00,,---,0.00,VWS V14.01,2013-07-17 09:30:00,
2013-07-17 04:34:00,75.1,66.6,30.21,SSW,198,0.0,0.0,75,0.00,,---,0.00,VWS V14.01,2013-07-17 09:34:00,
2013-07-17 04:39:00,74.9,66.8,30.21,SSW,198,0.0,0.0,76,0.00,,---,0.00,VWS V14.01,2013-07-17 09:39:00,
2013-07-17 04:44:00,74.7,66.6,30.21,SSW,198,0.0,0.0,76,0.00,,---,0.00,VWS V14.01,2013-07-17 09:44:00,
2013-07-17 04:49:00,74.6,66.5,30.21,SSW,198,0.0,0.0,76,0.00,,---,0.00,VWS V14.01,2013-07-17 09:49:00,
2013-07-17 04:54:00,74.6,66.9,30.21,SSW,198,0.0,0.0,77,0.00,,---,0.00,VWS V14.01,2013-07-17 09:54:00,
2013-07-17 04:59:00,74.0,66.3,30.21,SSW,198,0.0,0.0,77,0.00,,---,0.00,VWS V14.01,2013-07-17 09:59:00,
2013-07-17 05:00:00,76.0,67.1,30.21,SSW,198,0.0,1.0,74,0.00,,---,0.00,VWS V14.01,2013-07-17 10:00:00,
2013-07-17 05:04:00,73.9,66.2,30.20,SSW,198,0.0,0.0,77,0.00,,---,0.00,VWS V14.01,2013-07-17 10:04:00,
2013-07-17 05:09:00,73.5,65.9,30.20,SSW,198,0.0,0.0,77,0.00,,---,0.00,VWS V14.01,2013-07-17 10:09:00,
2013-07-17 05:14:00,73.2,65.9,30.20,SSW,198,0.0,0.0,78,0.00,,---,0.00,VWS V14.01,2013-07-17 10:14:00,
2013-07-17 05:19:00,73.0,65.7,30.21,SSW,198,0.0,0.0,78,0.00,,---,0.00,VWS V14.01,2013-07-17 10:19:00,
2013-07-17 05:24:00,72.8,65.6,30.21,SSW,198,0.0,0.0,78,0.00,,---,0.00,VWS V14.01,2013-07-17 10:24:00,
2013-07-17 05:29:00,72.5,65.3,30.21,SSW,198,0.0,0.0,78,0.00,,---,0.00,VWS V14.01,2013-07-17 10:29:00,
2013-07-17 05:30:00,75.3,66.8,30.21,SSW,198,0.0,0.0,75,0.00,,---,0.00,VWS V14.01,2013-07-17 10:30:00,
2013-07-17 05:34:00,72.3,65.1,30.21,SSW,198,0.0,0.0,78,0.00,,---,0.00,VWS V14.01,2013-07-17 10:34:00,
2013-07-17 05:39:00,72.0,65.1,30.21,SSW,198,0.0,0.0,79,0.00,,---,0.00,VWS V14.01,2013-07-17 10:39:00,
2013-07-17 05:44:00,71.8,64.9,30.21,SSW,198,0.0,0.0,79,0.00,,---,0.00,VWS V14.01,2013-07-17 10:44:00,
2013-07-17 05:49:00,71.6,64.8,30.21,SSW,198,0.0,0.0,79,0.00,,---,0.00,VWS V14.01,2013-07-17 10:49:00,
2013-07-17 05:54:00,71.5,65.0,30.21,SE,142,0.0,0.0,80,0.00,,---,0.00,VWS V14.01,2013-07-17 10:54:00,
2013-07-17 05:59:00,71.3,64.8,30.21,SE,142,0.0,0.0,80,0.00,,---,0.00,VWS V14.01,2013-07-17 10:59:00,
2013-07-17 06:00:00,74.0,66.3,30.20,SSW,198,0.0,0.0,77,0.00,,---,0.00,VWS V14.01,2013-07-17 11:00:00,
2013-07-17 06:04:00,71.1,64.6,30.21,SE,142,0.0,0.0,80,0.00,,---,0.00,VWS V14.01,2013-07-17 11:04:00,
2013-07-17 06:09:00,70.9,64.8,30.21,SE,142,0.0,0.0,81,0.00,,---,0.00,VWS V14.01,2013-07-17 11:09:00,
2013-07-17 06:14:00,70.9,64.8,30.21,SE,142,0.0,0.0,81,0.00,,---,0.00,VWS V14.01,2013-07-17 11:14:00,
2013-07-17 06:19:00,70.9,65.1,30.22,SE,142,0.0,0.0,82,0.00,,---,0.00,VWS V14.01,2013-07-17 11:19:00,
2013-07-17 06:24:00,71.1,65.3,30.22,SE,142,0.0,0.0,82,0.00,,---,0.00,VWS V14.01,2013-07-17 11:24:00,
2013-07-17 06:29:00,71.3,65.5,30.22,SE,142,0.0,0.0,82,0.00,,---,0.00,VWS V14.01,2013-07-17 11:29:00,
2013-07-17 06:30:00,72.5,65.3,30.21,SSW,198,0.0,0.0,78,0.00,,---,0.00,VWS V14.01,2013-07-17 11:30:00,
2013-07-17 06:34:00,71.3,65.5,30.23,SE,142,0.0,0.0,82,0.00,,---,0.00,VWS V14.01,2013-07-17 11:34:00,
2013-07-17 06:39:00,71.3,65.5,30.23,SE,142,0.0,0.0,82,0.00,,---,0.00,VWS V14.01,2013-07-17 11:39:00,
2013-07-17 06:44:00,71.3,65.5,30.23,SE,142,0.0,0.0,82,0.00,,---,0.00,VWS V14.01,2013-07-17 11:44:00,
2013-07-17 06:49:00,71.3,65.9,30.23,SE,142,0.0,0.0,83,0.00,,---,0.00,VWS V14.01,2013-07-17 11:49:00,
2013-07-17 06:54:00,71.5,66.1,30.23,SE,142,0.0,0.0,83,0.00,,---,0.00,VWS V14.01,2013-07-17 11:54:00,
2013-07-17 06:59:00,71.6,66.2,30.23,SE,142,0.0,0.0,83,0.00,,---,0.00,VWS V14.01,2013-07-17 11:59:00,
2013-07-17 07:00:00,71.1,64.6,30.21,SE,142,0.0,0.0,80,0.00,,---,0.00,VWS V14.01,2013-07-17 12:00:00,
2013-07-17 07:04:00,71.8,66.4,30.23,SE,142,0.0,0.0,83,0.00,,---,0.00,VWS V14.01,2013-07-17 12:04:00,
2013-07-17 07:09:00,71.8,66.4,30.23,SE,142,0.0,0.0,83,0.00,,---,0.00,VWS V14.01,2013-07-17 12:09:00,
2013-07-17 07:14:00,72.1,67.0,30.23,SE,142,0.0,0.0,84,0.00,,---,0.00,VWS V14.01,2013-07-17 12:14:00,
2013-07-17 07:19:00,72.3,67.2,30.23,SE,142,0.0,0.0,84,0.00,,---,0.00,VWS V14.01,2013-07-17 12:19:00,
2013-07-17 07:24:00,72.8,67.7,30.23,SE,142,0.0,0.0,84,0.00,,---,0.00,VWS V14.01,2013-07-17 12:24:00,
2013-07-17 07:29:00,73.7,68.6,30.23,SE,142,0.0,0.0,84,0.00,,---,0.00,VWS V14.01,2013-07-17 12:29:00,
2013-07-17 07:30:00,71.3,65.5,30.23,SE,142,0.0,0.0,82,0.00,,---,0.00,VWS V14.01,2013-07-17 12:30:00,
2013-07-17 07:34:00,74.6,69.4,30.24,SE,142,0.0,0.0,84,0.00,,---,0.00,VWS V14.01,2013-07-17 12:34:00,
2013-07-17 07:39:00,75.3,70.1,30.24,SE,142,0.0,1.0,84,0.00,,---,0.00,VWS V14.01,2013-07-17 12:39:00,
2013-07-17 07:44:00,76.0,70.8,30.24,SE,142,1.0,1.0,84,0.00,,---,0.00,VWS V14.01,2013-07-17 12:44:00,
2013-07-17 07:49:00,76.5,71.0,30.24,SE,142,0.0,1.0,83,0.00,,---,0.00,VWS V14.01,2013-07-17 12:49:00,
2013-07-17 07:54:00,76.8,71.2,30.24,SE,142,1.0,2.0,83,0.00,,---,0.00,VWS V14.01,2013-07-17 12:54:00,
2013-07-17 07:59:00,77.0,71.1,30.24,SE,141,0.0,3.0,82,0.00,,---,0.00,VWS V14.01,2013-07-17 12:59:00,
2013-07-17 08:04:00,77.6,71.7,30.25,SE,141,0.0,1.0,82,0.00,,---,0.00,VWS V14.01,2013-07-17 13:04:00,
2013-07-17 08:09:00,78.1,72.2,30.25,SE,141,0.0,1.0,82,0.00,,---,0.00,VWS V14.01,2013-07-17 13:09:00,
2013-07-17 08:14:00,78.6,72.3,30.25,SE,141,1.0,1.0,81,0.00,,---,0.00,VWS V14.01,2013-07-17 13:14:00,
2013-07-17 08:19:00,79.2,72.9,30.24,SE,142,1.0,2.0,81,0.00,,---,0.00,VWS V14.01,2013-07-17 13:19:00,
2013-07-17 08:24:00,79.8,73.1,30.24,SE,142,0.0,2.0,80,0.00,,---,0.00,VWS V14.01,2013-07-17 13:24:00,
2013-07-17 08:29:00,80.1,73.0,30.24,SE,144,0.0,2.0,79,0.00,,---,0.00,VWS V14.01,2013-07-17 13:29:00,
2013-07-17 08:30:00,73.9,68.8,30.24,SE,142,0.0,0.0,84,0.00,,---,0.00,VWS V14.01,2013-07-17 13:30:00,
2013-07-17 08:34:00,80.1,73.0,30.24,SE,143,0.0,1.0,79,0.00,,---,0.00,VWS V14.01,2013-07-17 13:34:00,
2013-07-17 08:39:00,79.9,72.4,30.24,SE,143,0.0,2.0,78,0.00,,---,0.00,VWS V14.01,2013-07-17 13:39:00,
2013-07-17 08:44:00,79.6,72.1,30.24,SE,144,0.0,2.0,78,0.00,,---,0.00,VWS V14.01,2013-07-17 13:44:00,
2013-07-17 08:49:00,79.2,71.8,30.25,SE,144,0.0,2.0,78,0.00,,---,0.00,VWS V14.01,2013-07-17 13:49:00,
2013-07-17 08:54:00,79.0,71.6,30.25,SE,144,1.0,2.0,78,0.00,,---,0.00,VWS V14.01,2013-07-17 13:54:00,
2013-07-17 08:59:00,79.2,72.1,30.25,SSE,147,0.0,3.0,79,0.00,,---,0.00,VWS V14.01,2013-07-17 13:59:00,
2013-07-17 09:00:00,77.2,71.3,30.25,SE,141,1.0,3.0,82,0.00,,---,0.00,VWS V14.01,2013-07-17 14:00:00,
2013-07-17 09:04:00,79.2,72.1,30.25,SSE,153,0.0,2.0,79,0.00,,---,0.00,VWS V14.01,2013-07-17 14:04:00,
2013-07-17 09:09:00,79.2,71.8,30.25,SSE,154,0.0,3.0,78,0.00,,---,0.00,VWS V14.01,2013-07-17 14:09:00,
2013-07-17 09:14:00,79.2,71.8,30.25,SSW,203,0.0,3.0,78,0.00,,---,0.00,VWS V14.01,2013-07-17 14:14:00,
2013-07-17 09:19:00,79.2,72.1,30.25,SSW,203,0.0,3.0,79,0.00,,---,0.00,VWS V14.01,2013-07-17 14:19:00,
2013-07-17 09:24:00,79.6,72.1,30.25,WSW,240,2.0,3.0,78,0.00,,---,0.00,VWS V14.01,2013-07-17 14:24:00,
2013-07-17 09:29:00,80.1,72.6,30.25,WSW,243,0.0,4.0,78,0.00,,---,0.00,VWS V14.01,2013-07-17 14:29:00,
2013-07-17 09:30:00,80.1,73.0,30.24,SE,144,1.0,2.0,79,0.00,,---,0.00,VWS V14.01,2013-07-17 14:30:00,
2013-07-17 09:34:00,80.5,73.0,30.26,SW,230,0.0,1.0,78,0.00,,---,0.00,VWS V14.01,2013-07-17 14:34:00,
2013-07-17 09:39:00,81.1,73.2,30.26,South,169,3.0,4.0,77,0.00,,---,0.00,VWS V14.01,2013-07-17 14:39:00,
2013-07-17 09:44:00,81.6,73.7,30.26,South,171,1.0,4.0,77,0.00,,---,0.00,VWS V14.01,2013-07-17 14:44:00,
2013-07-17 09:49:00,82.0,73.7,30.25,South,172,1.0,4.0,76,0.00,,---,0.00,VWS V14.01,2013-07-17 14:49:00,
2013-07-17 09:54:00,82.2,73.5,30.25,SSW,208,0.0,4.0,75,0.00,,---,0.00,VWS V14.01,2013-07-17 14:54:00,
2013-07-17 09:59:00,82.6,73.9,30.25,ESE,110,0.0,4.0,75,0.00,,---,0.00,VWS V14.01,2013-07-17 14:59:00,
2013-07-17 10:00:00,79.2,72.1,30.25,SSE,148,0.0,3.0,79,0.00,,---,0.00,VWS V14.01,2013-07-17 15:00:00,
2013-07-17 10:04:00,82.8,73.3,30.25,WSW,254,1.0,4.0,73,0.00,,---,0.00,VWS V14.01,2013-07-17 15:04:00,
2013-07-17 10:09:00,83.2,73.7,30.25,WSW,255,2.0,4.0,73,0.00,,---,0.00,VWS V14.01,2013-07-17 15:09:00,
2013-07-17 10:14:00,83.6,74.0,30.25,SSE,158,1.0,4.0,73,0.00,,---,0.00,VWS V14.01,2013-07-17 15:14:00,
2013-07-17 10:19:00,84.0,74.0,30.25,ESE,107,0.0,5.0,72,0.00,,---,0.00,VWS V14.01,2013-07-17 15:19:00,
2013-07-17 10:24:00,83.8,73.4,30.25,SSW,193,0.0,5.0,71,0.00,,---,0.00,VWS V14.01,2013-07-17 15:24:00,
2013-07-17 10:29:00,84.0,73.2,30.25,WSW,248,0.0,7.0,70,0.00,,---,0.00,VWS V14.01,2013-07-17 15:29:00,
2013-07-17 10:30:00,80.1,72.6,30.26,WSW,243,0.0,4.0,78,0.00,,---,0.00,VWS V14.01,2013-07-17 15:30:00,
2013-07-17 10:34:00,84.3,72.6,30.25,West,263,2.0,6.0,68,0.00,,---,0.00,VWS V14.01,2013-07-17 15:34:00,
2013-07-17 10:39:00,84.7,72.5,30.25,SW,227,0.0,6.0,67,0.00,,---,0.00,VWS V14.01,2013-07-17 15:39:00,
2013-07-17 10:44:00,84.7,72.1,30.25,SW,214,0.0,6.0,66,0.00,,---,0.00,VWS V14.01,2013-07-17 15:44:00,
2013-07-17 10:49:00,84.7,71.6,30.25,SW,218,4.0,6.0,65,0.00,,---,0.00,VWS V14.01,2013-07-17 15:49:00,
2013-07-17 10:54:00,85.1,72.0,30.25,West,270,2.0,6.0,65,0.00,,---,0.00,VWS V14.01,2013-07-17 15:54:00,
2013-07-17 10:59:00,85.5,71.9,30.25,West,277,0.0,6.0,64,0.00,,---,0.00,VWS V14.01,2013-07-17 15:59:00,
2013-07-17 11:00:00,82.8,74.1,30.25,ESE,110,0.0,4.0,75,0.00,,---,0.00,VWS V14.01,2013-07-17 16:00:00,
2013-07-17 11:04:00,85.7,72.1,30.25,SW,225,2.0,5.0,64,0.00,,---,0.00,VWS V14.01,2013-07-17 16:04:00,
2013-07-17 11:09:00,85.5,71.5,30.25,SW,220,0.0,6.0,63,0.00,,---,0.00,VWS V14.01,2013-07-17 16:09:00,
2013-07-17 11:14:00,85.3,71.3,30.25,West,261,3.0,6.0,63,0.00,,---,0.00,VWS V14.01,2013-07-17 16:14:00,
2013-07-17 11:19:00,85.3,70.8,30.25,SW,221,1.0,6.0,62,0.00,,---,0.00,VWS V14.01,2013-07-17 16:19:00,
2013-07-17 11:24:00,85.3,70.8,30.25,NW,306,1.0,6.0,62,0.00,,---,0.00,VWS V14.01,2013-07-17 16:24:00,
2013-07-17 11:29:00,85.5,71.0,30.25,West,277,0.0,6.0,62,0.00,,---,0.00,VWS V14.01,2013-07-17 16:29:00,
2013-07-17 11:30:00,84.1,73.3,30.25,WSW,248,3.0,7.0,70,0.00,,---,0.00,VWS V14.01,2013-07-17 16:30:00,
2013-07-17 11:34:00,86.1,71.6,30.24,NW,315,2.0,5.0,62,0.00,,---,0.00,VWS V14.01,2013-07-17 16:34:00,
2013-07-17 11:39:00,86.5,71.9,30.24,WNW,298,1.0,5.0,62,0.00,,---,0.00,VWS V14.01,2013-07-17 16:39:00,
2013-07-17 11:44:00,87.2,72.1,30.24,SW,235,0.0,5.0,61,0.00,,---,0.00,VWS V14.01,2013-07-17 16:44:00,
2013-07-17 11:49:00,87.6,72.5,30.24,NW,319,0.0,5.0,61,0.00,,---,0.00,VWS V14.01,2013-07-17 16:49:00,
2013-07-17 11:54:00,87.8,72.2,30.24,SE,140,3.0,5.0,60,0.00,,---,0.00,VWS V14.01,2013-07-17 16:54:00,
2013-07-17 11:59:00,87.8,71.7,30.24,SSE,153,1.0,5.0,59,0.00,,---,0.00,VWS V14.01,2013-07-17 16:59:00,
2013-07-17 12:00:00,85.5,71.9,30.25,WNW,291,2.0,6.0,64,0.00,,---,0.00,VWS V14.01,2013-07-17 17:00:00,
2013-07-17 12:04:00,87.6,71.5,30.24,SSE,150,0.0,2.0,59,0.00,,---,0.00,VWS V14.01,2013-07-17 17:04:00,
2013-07-17 12:09:00,87.4,71.3,30.24,SSE,147,0.0,3.0,59,0.00,,---,0.00,VWS V14.01,2013-07-17 17:09:00,
2013-07-17 12:14:00,87.0,70.9,30.24,West,265,2.0,3.0,59,0.00,,---,0.00,VWS V14.01,2013-07-17 17:14:00,
2013-07-17 12:19:00,86.7,70.7,30.24,West,265,1.0,5.0,59,0.00,,---,0.00,VWS V14.01,2013-07-17 17:19:00,
2013-07-17 12:24:00,86.7,70.7,30.24,WSW,244,1.0,5.0,59,0.00,,---,0.00,VWS V14.01,2013-07-17 17:24:00,
2013-07-17 12:29:00,86.7,70.7,30.24,WNW,296,1.0,5.0,59,0.00,,---,0.00,VWS V14.01,2013-07-17 17:29:00,
2013-07-17 12:30:00,85.5,71.5,30.24,SW,216,4.0,6.0,63,0.00,,---,0.00,VWS V14.01,2013-07-17 17:30:00,
2013-07-17 12:34:00,86.7,70.7,30.24,WNW,298,0.0,2.0,59,0.00,,---,0.00,VWS V14.01,2013-07-17 17:34:00,
2013-07-17 12:39:00,86.5,70.5,30.24,West,262,1.0,5.0,59,0.00,,---,0.00,VWS V14.01,2013-07-17 17:39:00,
2013-07-17 12:44:00,86.3,70.3,30.24,SW,226,0.0,5.0,59,0.00,,---,0.00,VWS V14.01,2013-07-17 17:44:00,
2013-07-17 12:49:00,86.5,70.5,30.24,SSE,168,0.0,5.0,59,0.00,,---,0.00,VWS V14.01,2013-07-17 17:49:00,
2013-07-17 12:54:00,86.5,70.5,30.24,South,184,0.0,5.0,59,0.00,,---,0.00,VWS V14.01,2013-07-17 17:54:00,
2013-07-17 12:59:00,86.5,70.5,30.24,West,277,2.0,5.0,59,0.00,,---,0.00,VWS V14.01,2013-07-17 17:59:00,
2013-07-17 13:00:00,87.8,71.7,30.24,SSE,150,3.0,5.0,59,0.00,,---,0.00,VWS V14.01,2013-07-17 18:00:00,
2013-07-17 13:04:00,86.5,70.5,30.24,WSW,247,0.0,4.0,59,0.00,,---,0.00,VWS V14.01,2013-07-17 18:04:00,
2013-07-17 13:09:00,86.5,70.5,30.24,WSW,254,0.0,4.0,59,0.00,,---,0.00,VWS V14.01,2013-07-17 18:09:00,
2013-07-17 13:14:00,86.5,70.5,30.24,West,275,0.0,4.0,59,0.00,,---,0.00,VWS V14.01,2013-07-17 18:14:00,
2013-07-17 13:19:00,86.5,70.5,30.24,West,275,0.0,4.0,59,0.00,,---,0.00,VWS V14.01,2013-07-17 18:19:00,
2013-07-17 13:24:00,86.7,70.7,30.24,South,184,1.0,4.0,59,0.00,,---,0.00,VWS V14.01,2013-07-17 18:24:00,
2013-07-17 13:29:00,86.7,70.2,30.23,South,184,2.0,4.0,58,0.00,,---,0.00,VWS V14.01,2013-07-17 18:29:00,
2013-07-17 13:30:00,86.7,70.7,30.24,WNW,296,2.0,5.0,59,0.00,,---,0.00,VWS V14.01,2013-07-17 18:30:00,
2013-07-17 13:34:00,86.5,70.0,30.23,WSW,254,0.0,2.0,58,0.00,,---,0.00,VWS V14.01,2013-07-17 18:34:00,
2013-07-17 13:39:00,86.5,70.0,30.23,WSW,254,0.0,2.0,58,0.00,,---,0.00,VWS V14.01,2013-07-17 18:39:00,
2013-07-17 13:44:00,86.7,69.7,30.23,SW,236,0.0,2.0,57,0.00,,---,0.00,VWS V14.01,2013-07-17 18:44:00,
2013-07-17 13:49:00,87.0,69.9,30.23,WSW,253,2.0,4.0,57,0.00,,---,0.00,VWS V14.01,2013-07-17 18:49:00,
2013-07-17 13:54:00,87.0,69.9,30.23,SW,236,1.0,4.0,57,0.00,,---,0.00,VWS V14.01,2013-07-17 18:54:00,
2013-07-17 14:00:00,87.4,70.3,30.23,SW,215,2.0,4.0,57,0.00,,---,0.00,VWS V14.01,2013-07-17 19:00:00,
2013-07-17 14:05:00,87.8,70.2,30.23,WSW,255,2.0,5.0,56,0.00,,---,0.00,VWS V14.01,2013-07-17 19:05:00,
2013-07-17 14:09:00,87.8,69.6,30.23,West,270,1.0,5.0,55,0.00,,---,0.00,VWS V14.01,2013-07-17 19:09:00,
2013-07-17 14:14:00,87.6,69.4,30.22,SSW,197,0.0,5.0,55,0.00,,---,0.00,VWS V14.01,2013-07-17 19:14:00,
2013-07-17 14:19:00,88.2,70.5,30.22,SSW,208,3.0,5.0,56,0.00,,---,0.00,VWS V14.01,2013-07-17 19:19:00,
2013-07-17 14:24:00,88.8,70.6,30.22,SW,218,0.0,5.0,55,0.00,,---,0.00,VWS V14.01,2013-07-17 19:24:00,
2013-07-17 14:29:00,89.3,71.0,30.22,NNE,33,0.0,5.0,55,0.00,,---,0.00,VWS V14.01,2013-07-17 19:29:00,
2013-07-17 14:30:00,86.7,70.2,30.23,West,263,1.0,4.0,58,0.00,,---,0.00,VWS V14.01,2013-07-17 19:30:00,
2013-07-17 14:34:00,89.7,71.4,30.21,NE,36,1.0,3.0,55,0.00,,---,0.00,VWS V14.01,2013-07-17 19:34:00,
2013-07-17 14:39:00,89.9,71.0,30.21,SE,126,1.0,4.0,54,0.00,,---,0.00,VWS V14.01,2013-07-17 19:39:00,
2013-07-17 14:44:00,90.1,71.2,30.20,SW,227,3.0,4.0,54,0.00,,---,0.00,VWS V14.01,2013-07-17 19:44:00,
2013-07-17 14:49:00,90.3,70.9,30.20,ESE,123,0.0,4.0,53,0.00,,---,0.00,VWS V14.01,2013-07-17 19:49:00,
2013-07-17 14:54:00,90.3,70.9,30.20,West,265,0.0,4.0,53,0.00,,---,0.00,VWS V14.01,2013-07-17 19:54:00,
2013-07-17 14:59:00,90.5,71.1,30.19,ESE,119,0.0,6.0,53,0.00,,---,0.00,VWS V14.01,2013-07-17 19:59:00,
2013-07-17 15:00:00,87.6,70.5,30.23,SW,234,0.0,4.0,57,0.00,,---,0.00,VWS V14.01,2013-07-17 20:00:00,
2013-07-17 15:04:00,90.7,70.7,30.19,South,181,0.0,5.0,52,0.00,,---,0.00,VWS V14.01,2013-07-17 20:04:00,
2013-07-17 15:09:00,90.7,70.7,30.19,SSE,157,1.0,5.0,52,0.00,,---,0.00,VWS V14.01,2013-07-17 20:09:00,
2013-07-17 15:14:00,91.2,71.1,30.19,SSE,163,1.0,5.0,52,0.00,,---,0.00,VWS V14.01,2013-07-17 20:14:00,
2013-07-17 15:19:00,91.2,70.6,30.19,SW,223,1.0,6.0,51,0.00,,---,0.00,VWS V14.01,2013-07-17 20:19:00,
2013-07-17 15:24:00,91.4,70.7,30.19,SE,130,0.0,6.0,51,0.00,,---,0.00,VWS V14.01,2013-07-17 20:24:00,
2013-07-17 15:29:00,91.2,70.6,30.19,SSW,204,0.0,6.0,51,0.00,,---,0.00,VWS V14.01,2013-07-17 20:29:00,
2013-07-17 15:30:00,89.5,71.2,30.21,NNE,33,0.0,5.0,55,0.00,,---,0.00,VWS V14.01,2013-07-17 20:30:00,
2013-07-17 15:34:00,91.4,70.7,30.18,WSW,244,3.0,6.0,51,0.00,,---,0.00,VWS V14.01,2013-07-17 20:34:00,
2013-07-17 15:39:00,91.4,70.2,30.18,SE,142,0.0,6.0,50,0.00,,---,0.00,VWS V14.01,2013-07-17 20:39:00,
2013-07-17 15:44:00,91.4,70.2,30.18,NNE,13,0.0,6.0,50,0.00,,---,0.00,VWS V14.01,2013-07-17 20:44:00,
2013-07-17 15:49:00,91.2,70.0,30.18,SSE,165,3.0,6.0,50,0.00,,---,0.00,VWS V14.01,2013-07-17 20:49:00,
2013-07-17 15:54:00,91.2,70.6,30.18,ENE,76,2.0,6.0,51,0.00,,---,0.00,VWS V14.01,2013-07-17 20:54:00,
2013-07-17 15:59:00,91.2,70.6,30.18,WSW,252,2.0,6.0,51,0.00,,---,0.00,VWS V14.01,2013-07-17 20:59:00,
2013-07-17 16:00:00,90.5,71.1,30.19,SSE,163,1.0,6.0,53,0.00,,---,0.00,VWS V14.01,2013-07-17 21:00:00,
2013-07-17 16:04:00,91.0,69.8,30.18,SSE,161,0.0,5.0,50,0.00,,---,0.00,VWS V14.01,2013-07-17 21:04:00,
2013-07-17 16:05:00,91.0,69.8,30.18,SSE,161,0.0,5.0,50,0.00,,---,0.00,VWS V14.01,2013-07-17 21:05:00,
2013-07-17 16:10:00,90.7,69.5,30.18,ESE,114,2.0,5.0,50,0.00,,---,0.00,VWS V14.01,2013-07-17 21:10:00,
2013-07-17 16:15:00,90.7,69.5,30.18,SE,139,0.0,5.0,50,0.00,,---,0.00,VWS V14.01,2013-07-17 21:15:00,
2013-07-17 16:20:00,91.2,70.0,30.18,WSW,246,0.0,5.0,50,0.00,,---,0.00,VWS V14.01,2013-07-17 21:20:00,
2013-07-17 16:25:00,91.6,70.3,30.18,SE,142,1.0,5.0,50,0.00,,---,0.00,VWS V14.01,2013-07-17 21:25:00,
2013-07-17 16:30:00,91.8,69.9,30.17,East,94,2.0,5.0,49,0.00,,---,0.00,VWS V14.01,2013-07-17 21:30:00,
2013-07-17 16:35:00,92.1,70.2,30.17,SE,138,0.0,4.0,49,0.00,,---,0.00,VWS V14.01,2013-07-17 21:35:00,
2013-07-17 16:40:00,92.3,69.8,30.17,SSW,198,2.0,5.0,48,0.00,,---,0.00,VWS V14.01,2013-07-17 21:40:00,
2013-07-17 16:45:00,92.1,69.0,30.16,West,271,3.0,7.0,47,0.00,,---,0.00,VWS V14.01,2013-07-17 21:45:00,
2013-07-17 16:50:00,92.1,69.0,30.16,SSW,200,2.0,7.0,47,0.00,,---,0.00,VWS V14.01,2013-07-17 21:50:00,
2013-07-17 16:55:00,92.3,69.2,30.16,South,173,0.0,7.0,47,0.00,,---,0.00,VWS V14.01,2013-07-17 21:55:00,
2013-07-17 17:00:00,92.3,69.8,30.16,East,89,2.0,9.0,48,0.00,,---,0.00,VWS V14.01,2013-07-17 22:00:00,
2013-07-17 17:05:00,91.6,69.8,30.16,SE,126,1.0,6.0,49,0.00,,---,0.00,VWS V14.01,2013-07-17 22:05:00,
2013-07-17 17:10:00,91.0,69.2,30.16,East,101,2.0,6.0,49,0.00,,---,0.00,VWS V14.01,2013-07-17 22:10:00,
2013-07-17 17:15:00,90.7,69.5,30.15,East,81,2.0,7.0,50,0.00,,---,0.00,VWS V14.01,2013-07-17 22:15:00,
2013-07-17 17:20:00,90.5,69.3,30.15,East,98,3.0,7.0,50,0.00,,---,0.00,VWS V14.01,2013-07-17 22:20:00,
2013-07-17 17:25:00,90.5,69.9,30.15,East,101,5.0,7.0,51,0.00,,---,0.00,VWS V14.01,2013-07-17 22:25:00,
2013-07-17 17:30:00,90.7,70.1,30.15,ENE,74,1.0,7.0,51,0.00,,---,0.00,VWS V14.01,2013-07-17 22:30:00,
2013-07-17 17:35:00,90.7,70.1,30.15,SSE,147,0.0,4.0,51,0.00,,---,0.00,VWS V14.01,2013-07-17 22:35:00,
2013-07-17 17:40:00,90.7,70.1,30.15,ESE,115,1.0,7.0,51,0.00,,---,0.00,VWS V14.01,2013-07-17 22:40:00,
2013-07-17 17:45:00,90.5,69.3,30.14,East,95,0.0,7.0,50,0.00,,---,0.00,VWS V14.01,2013-07-17 22:45:00,
2013-07-17 17:50:00,90.5,69.3,30.14,ENE,72,4.0,7.0,50,0.00,,---,0.00,VWS V14.01,2013-07-17 22:50:00,
2013-07-17 17:55:00,90.1,69.6,30.14,East,91,2.0,7.0,51,0.00,,---,0.00,VWS V14.01,2013-07-17 22:55:00,
2013-07-17 18:00:00,90.1,69.6,30.14,ENE,65,5.0,7.0,51,0.00,,---,0.00,VWS V14.01,2013-07-17 23:00:00,
2013-07-17 18:05:00,90.3,69.7,30.14,SE,142,0.0,2.0,51,0.00,,---,0.00,VWS V14.01,2013-07-17 23:05:00,
2013-07-17 18:10:00,90.5,69.3,30.14,ESE,110,2.0,3.0,50,0.00,,---,0.00,VWS V14.01,2013-07-17 23:10:00,
2013-07-17 18:15:00,90.7,68.9,30.13,SE,145,0.0,4.0,49,0.00,,---,0.00,VWS V14.01,2013-07-17 23:15:00,
2013-07-17 18:20:00,90.7,68.9,30.13,ESE,115,0.0,5.0,49,0.00,,---,0.00,VWS V14.01,2013-07-17 23:20:00,
2013-07-17 18:25:00,90.7,68.9,30.13,SSE,161,2.0,5.0,49,0.00,,---,0.00,VWS V14.01,2013-07-17 23:25:00,
2013-07-17 18:30:00,90.7,68.9,30.13,East,86,1.0,6.0,49,0.00,,---,0.00,VWS V14.01,2013-07-17 23:30:00,
2013-07-17 18:35:00,90.7,68.3,30.13,SSE,168,0.0,3.0,48,0.00,,---,0.00,VWS V14.01,2013-07-17 23:35:00,
2013-07-17 18:40:00,90.7,68.9,30.13,SE,132,0.0,5.0,49,0.00,,---,0.00,VWS V14.01,2013-07-17 23:40:00,
2013-07-17 18:45:00,90.7,68.9,30.13,ESE,111,0.0,5.0,49,0.00,,---,0.00,VWS V14.01,2013-07-17 23:45:00,
2013-07-17 18:50:00,90.7,68.9,30.13,ESE,111,1.0,5.0,49,0.00,,---,0.00,VWS V14.01,2013-07-17 23:50:00,
2013-07-17 18:55:00,90.7,68.9,30.13,SE,129,0.0,5.0,49,0.00,,---,0.00,VWS V14.01,2013-07-17 23:55:00,
2013-07-17 19:00:00,90.5,68.8,30.13,ESE,108,4.0,5.0,49,0.00,,---,0.00,VWS V14.01,2013-07-18 00:00:00,
2013-07-17 19:05:00,90.3,68.6,30.13,ENE,72,4.0,5.0,49,0.00,,---,0.00,VWS V14.01,2013-07-18 00:05:00,
2013-07-17 19:10:00,89.5,68.4,30.13,East,82,1.0,5.0,50,0.00,,---,0.00,VWS V14.01,2013-07-18 00:10:00,
2013-07-17 19:15:00,88.6,68.2,30.13,ENE,68,0.0,5.0,51,0.00,,---,0.00,VWS V14.01,2013-07-18 00:15:00,
2013-07-17 19:20:00,87.8,68.0,30.13,SSE,148,0.0,5.0,52,0.00,,---,0.00,VWS V14.01,2013-07-18 00:20:00,
2013-07-17 19:25:00,87.4,68.2,30.13,ENE,62,0.0,5.0,53,0.00,,---,0.00,VWS V14.01,2013-07-18 00:25:00,
2013-07-17 19:30:00,87.2,68.5,30.13,SE,128,0.0,5.0,54,0.00,,---,0.00,VWS V14.01,2013-07-18 00:30:00,
2013-07-17 19:35:00,87.0,68.4,30.13,SE,131,0.0,2.0,54,0.00,,---,0.00,VWS V14.01,2013-07-18 00:35:00,
2013-07-17 19:40:00,86.7,68.6,30.13,East,88,1.0,5.0,55,0.00,,---,0.00,VWS V14.01,2013-07-18 00:40:00,
2013-07-17 19:45:00,86.7,68.6,30.13,East,88,1.0,5.0,55,0.00,,---,0.00,VWS V14.01,2013-07-18 00:45:00,
2013-07-17 19:50:00,86.5,68.4,30.13,East,88,2.0,5.0,55,0.00,,---,0.00,VWS V14.01,2013-07-18 00:50:00,
2013-07-17 19:55:00,86.5,69.0,30.13,East,88,0.0,5.0,56,0.00,,---,0.00,VWS V14.01,2013-07-18 00:55:00,
2013-07-17 20:00:00,86.5,69.0,30.13,ESE,119,1.0,5.0,56,0.00,,---,0.00,VWS V14.01,2013-07-18 01:00:00,
2013-07-17 20:05:00,86.3,68.8,30.13,ESE,102,0.0,4.0,56,0.00,,---,0.00,VWS V14.01,2013-07-18 01:05:00,
2013-07-17 20:10:00,86.3,69.3,30.13,ESE,102,0.0,4.0,57,0.00,,---,0.00,VWS V14.01,2013-07-18 01:10:00,
2013-07-17 20:15:00,86.1,69.1,30.13,ESE,102,0.0,4.0,57,0.00,,---,0.00,VWS V14.01,2013-07-18 01:15:00,
2013-07-17 20:20:00,85.9,68.9,30.13,ESE,102,0.0,4.0,57,0.00,,---,0.00,VWS V14.01,2013-07-18 01:20:00,
2013-07-17 20:25:00,85.7,69.2,30.13,ESE,102,0.0,4.0,58,0.00,,---,0.00,VWS V14.01,2013-07-18 01:25:00,
2013-07-17 20:30:00,85.5,69.1,30.12,ESE,102,0.0,4.0,58,0.00,,---,0.00,VWS V14.01,2013-07-18 01:30:00,
2013-07-17 20:35:00,85.3,68.9,30.12,East,101,0.0,0.0,58,0.00,,---,0.00,VWS V14.01,2013-07-18 01:35:00,
2013-07-17 20:40:00,84.9,68.5,30.12,East,101,0.0,0.0,58,0.00,,---,0.00,VWS V14.01,2013-07-18 01:40:00,
2013-07-17 20:45:00,84.5,68.6,30.12,ESE,102,0.0,0.0,59,0.00,,---,0.00,VWS V14.01,2013-07-18 01:45:00,
2013-07-17 20:50:00,84.3,68.4,30.12,East,101,0.0,0.0,59,0.00,,---,0.00,VWS V14.01,2013-07-18 01:50:00,
2013-07-17 20:55:00,84.1,68.2,30.12,East,101,0.0,0.0,59,0.00,,---,0.00,VWS V14.01,2013-07-18 01:55:00,
2013-07-17 21:00:00,84.0,68.6,30.12,East,101,0.0,0.0,60,0.00,,---,0.00,VWS V14.01,2013-07-18 02:00:00,
2013-07-17 21:05:00,83.8,68.4,30.12,ESE,102,0.0,0.0,60,0.00,,---,0.00,VWS V14.01,2013-07-18 02:05:00,
2013-07-17 21:10:00,83.4,68.6,30.12,ESE,102,0.0,0.0,61,0.00,,---,0.00,VWS V14.01,2013-07-18 02:10:00,
2013-07-17 21:15:00,83.2,68.4,30.12,ESE,102,0.0,0.0,61,0.00,,---,0.00,VWS V14.01,2013-07-18 02:15:00,
2013-07-17 21:20:00,82.8,68.0,30.12,ESE,102,0.0,0.0,61,0.00,,---,0.00,VWS V14.01,2013-07-18 02:20:00,
2013-07-17 21:25:00,82.6,68.3,30.12,ESE,102,0.0,0.0,62,0.00,,---,0.00,VWS V14.01,2013-07-18 02:25:00,
2013-07-17 21:30:00,82.2,67.9,30.12,ESE,102,0.0,0.0,62,0.00,,---,0.00,VWS V14.01,2013-07-18 02:30:00,
2013-07-17 21:35:00,81.8,68.0,30.12,ESE,102,0.0,0.0,63,0.00,,---,0.00,VWS V14.01,2013-07-18 02:35:00,
2013-07-17 21:40:00,81.2,67.4,30.12,ESE,102,0.0,0.0,63,0.00,,---,0.00,VWS V14.01,2013-07-18 02:40:00,
2013-07-17 21:45:00,80.9,67.1,30.12,ESE,102,0.0,0.0,63,0.00,,---,0.00,VWS V14.01,2013-07-18 02:45:00,
2013-07-17 21:50:00,80.7,67.4,30.12,ESE,102,0.0,0.0,64,0.00,,---,0.00,VWS V14.01,2013-07-18 02:50:00,
2013-07-17 21:55:00,80.3,67.0,30.12,ESE,102,0.0,0.0,64,0.00,,---,0.00,VWS V14.01,2013-07-18 02:55:00,
2013-07-17 22:00:00,79.9,67.1,30.13,ESE,102,0.0,0.0,65,0.00,,---,0.00,VWS V14.01,2013-07-18 03:00:00,
2013-07-17 22:05:00,79.9,67.5,30.13,ESE,102,0.0,0.0,66,0.00,,---,0.00,VWS V14.01,2013-07-18 03:05:00,
2013-07-17 22:10:00,80.1,67.7,30.13,ESE,102,0.0,0.0,66,0.00,,---,0.00,VWS V14.01,2013-07-18 03:10:00,
2013-07-17 22:15:00,80.1,67.7,30.13,ESE,102,0.0,0.0,66,0.00,,---,0.00,VWS V14.01,2013-07-18 03:15:00,
2013-07-17 22:20:00,80.1,68.2,30.13,ESE,102,0.0,0.0,67,0.00,,---,0.00,VWS V14.01,2013-07-18 03:20:00,
2013-07-17 22:25:00,80.1,68.2,30.13,ESE,102,0.0,0.0,67,0.00,,---,0.00,VWS V14.01,2013-07-18 03:25:00,
2013-07-17 22:30:00,79.9,68.4,30.13,ESE,102,0.0,0.0,68,0.00,,---,0.00,VWS V14.01,2013-07-18 03:30:00,
2013-07-17 22:35:00,79.9,68.4,30.13,ESE,102,0.0,0.0,68,0.00,,---,0.00,VWS V14.01,2013-07-18 03:35:00,
2013-07-17 22:40:00,79.9,68.4,30.13,ESE,102,0.0,0.0,68,0.00,,---,0.00,VWS V14.01,2013-07-18 03:40:00,
2013-07-17 22:45:00,79.8,68.3,30.14,ESE,102,0.0,0.0,68,0.00,,---,0.00,VWS V14.01,2013-07-18 03:45:00,
2013-07-17 22:50:00,79.6,68.1,30.14,ESE,102,0.0,0.0,68,0.00,,---,0.00,VWS V14.01,2013-07-18 03:50:00,
2013-07-17 22:55:00,79.4,68.3,30.14,ESE,102,0.0,0.0,69,0.00,,---,0.00,VWS V14.01,2013-07-18 03:55:00,
2013-07-17 23:00:00,79.2,68.2,30.14,ESE,102,0.0,0.0,69,0.00,,---,0.00,VWS V14.01,2013-07-18 04:00:00,
2013-07-17 23:01:00,79.2,68.2,30.14,ESE,102,0.0,0.0,69,0.00,,---,0.00,VWS V14.01,2013-07-18 04:01:00,
2013-07-17 23:06:00,79.4,68.8,30.14,ESE,102,0.0,0.0,70,0.00,,---,0.00,VWS V14.01,2013-07-18 04:06:00,
2013-07-17 23:11:00,79.4,68.8,30.14,ESE,102,0.0,0.0,70,0.00,,---,0.00,VWS V14.01,2013-07-18 04:11:00,
2013-07-17 23:16:00,79.4,68.8,30.14,ESE,102,0.0,0.0,70,0.00,,---,0.00,VWS V14.01,2013-07-18 04:16:00,
2013-07-17 23:21:00,79.2,68.6,30.14,ESE,102,0.0,0.0,70,0.00,,---,0.00,VWS V14.01,2013-07-18 04:21:00,
2013-07-17 23:26:00,78.8,68.6,30.14,ESE,102,0.0,0.0,71,0.00,,---,0.00,VWS V14.01,2013-07-18 04:26:00,
2013-07-17 23:30:00,79.9,68.4,30.13,ESE,102,0.0,0.0,68,0.00,,---,0.00,VWS V14.01,2013-07-18 04:30:00,
2013-07-17 23:31:00,78.8,68.6,30.14,ESE,102,0.0,0.0,71,0.00,,---,0.00,VWS V14.01,2013-07-18 04:31:00,
2013-07-17 23:36:00,78.6,68.4,30.14,ESE,102,0.0,0.0,71,0.00,,---,0.00,VWS V14.01,2013-07-18 04:36:00,
2013-07-17 23:41:00,78.5,68.7,30.14,ESE,102,0.0,0.0,72,0.00,,---,0.00,VWS V14.01,2013-07-18 04:41:00,
2013-07-17 23:46:00,78.5,68.7,30.14,ESE,102,0.0,0.0,72,0.00,,---,0.00,VWS V14.01,2013-07-18 04:46:00,
2013-07-17 23:51:00,78.5,68.7,30.14,ESE,102,0.0,0.0,72,0.00,,---,0.00,VWS V14.01,2013-07-18 04:51:00,
2013-07-17 23:56:00,78.5,68.7,30.14,ESE,102,0.0,0.0,72,0.00,,---,0.00,VWS V14.01,2013-07-18 04:56:00,